sensor_id;sensor_type;location;lat;lon;timestamp;P1;durP1;ratioP1;P2;durP2;ratioP2
9938;SDS011;5008;50.656;7.188;2023-10-31T05:17:25;0.73;;;0.70;;
9938;SDS011;5008;50.656;7.188;2023-10-31T05:19:52;0.50;;;0.50;;
9938;SDS011;5008;50.656;7.188;2023-10-31T05:22:19;1.73;;;0.60;;
9938;SDS011;5008;50.656;7.188;2023-10-31T05:24:46;0.60;;;0.60;;
9938;SDS011;5008;50.656;7.188;2023-10-31T05:27:13;0.83;;;0.83;;
9938;SDS011;5008;50.656;7.188;2023-10-31T05:29:40;1.17;;;0.70;;
9938;SDS011;5008;50.656;7.188;2023-10-31T05:34:41;0.87;;;0.60;;
9938;SDS011;5008;50.656;7.188;2023-10-31T05:37:08;1.00;;;0.53;;
9938;SDS011;5008;50.656;7.188;2023-10-31T05:39:35;1.60;;;0.73;;
9938;SDS011;5008;50.656;7.188;2023-10-31T05:42:02;1.10;;;0.60;;
9938;SDS011;5008;50.656;7.188;2023-10-31T05:44:29;0.43;;;0.40;;
9938;SDS011;5008;50.656;7.188;2023-10-31T05:46:56;0.60;;;0.60;;
9938;SDS011;5008;50.656;7.188;2023-10-31T05:49:23;1.30;;;0.70;;
9938;SDS011;5008;50.656;7.188;2023-10-31T05:51:51;1.43;;;0.50;;
9938;SDS011;5008;50.656;7.188;2023-10-31T05:54:19;0.77;;;0.50;;
9938;SDS011;5008;50.656;7.188;2023-10-31T05:56:49;0.70;;;0.70;;
9938;SDS011;5008;50.656;7.188;2023-10-31T05:59:16;0.73;;;0.50;;
9938;SDS011;5008;50.656;7.188;2023-10-31T06:01:43;0.83;;;0.83;;
9938;SDS011;5008;50.656;7.188;2023-10-31T06:04:10;2.27;;;0.60;;
9938;SDS011;5008;50.656;7.188;2023-10-31T06:06:37;1.63;;;0.60;;
9938;SDS011;5008;50.656;7.188;2023-10-31T06:09:06;1.23;;;0.80;;
9938;SDS011;5008;50.656;7.188;2023-10-31T06:11:34;0.80;;;0.73;;
9938;SDS011;5008;50.656;7.188;2023-10-31T06:14:01;1.20;;;1.10;;
9938;SDS011;5008;50.656;7.188;2023-10-31T06:16:30;1.23;;;1.13;;
9938;SDS011;5008;50.656;7.188;2023-10-31T06:18:57;2.10;;;1.00;;
9938;SDS011;5008;50.656;7.188;2023-10-31T06:21:23;1.53;;;1.00;;
9938;SDS011;5008;50.656;7.188;2023-10-31T06:23:50;1.23;;;1.00;;
9938;SDS011;5008;50.656;7.188;2023-10-31T06:26:18;0.70;;;0.70;;
9938;SDS011;5008;50.656;7.188;2023-10-31T06:28:45;0.80;;;0.70;;
9938;SDS011;5008;50.656;7.188;2023-10-31T06:31:12;2.97;;;1.13;;
9938;SDS011;5008;50.656;7.188;2023-10-31T06:33:39;1.40;;;0.73;;
9938;SDS011;5008;50.656;7.188;2023-10-31T06:36:07;2.07;;;0.80;;
9938;SDS011;5008;50.656;7.188;2023-10-31T06:38:34;0.80;;;0.80;;
9938;SDS011;5008;50.656;7.188;2023-10-31T06:41:01;0.80;;;0.80;;
9938;SDS011;5008;50.656;7.188;2023-10-31T06:43:29;1.70;;;0.80;;
9938;SDS011;5008;50.656;7.188;2023-10-31T06:45:56;0.87;;;0.80;;
9938;SDS011;5008;50.656;7.188;2023-10-31T06:48:25;1.00;;;0.70;;
9938;SDS011;5008;50.656;7.188;2023-10-31T06:50:52;2.27;;;0.97;;
9938;SDS011;5008;50.656;7.188;2023-10-31T06:53:19;0.70;;;0.70;;
9938;SDS011;5008;50.656;7.188;2023-10-31T06:55:46;1.33;;;1.23;;
9938;SDS011;5008;50.656;7.188;2023-10-31T06:58:13;1.27;;;0.80;;
9938;SDS011;5008;50.656;7.188;2023-10-31T07:00:41;0.70;;;0.70;;
9938;SDS011;5008;50.656;7.188;2023-10-31T07:03:08;1.00;;;0.80;;
9938;SDS011;5008;50.656;7.188;2023-10-31T07:05:40;0.87;;;0.60;;
9938;SDS011;5008;50.656;7.188;2023-10-31T07:08:07;0.60;;;0.53;;
9938;SDS011;5008;50.656;7.188;2023-10-31T07:10:34;1.97;;;0.80;;
9938;SDS011;5008;50.656;7.188;2023-10-31T07:13:00;1.67;;;0.97;;
9938;SDS011;5008;50.656;7.188;2023-10-31T07:15:27;1.00;;;0.77;;
9938;SDS011;5008;50.656;7.188;2023-10-31T07:17:56;1.23;;;0.80;;
9938;SDS011;5008;50.656;7.188;2023-10-31T07:20:22;1.17;;;0.90;;
9938;SDS011;5008;50.656;7.188;2023-10-31T07:22:49;0.77;;;0.60;;
9938;SDS011;5008;50.656;7.188;2023-10-31T07:25:16;0.77;;;0.70;;
9938;SDS011;5008;50.656;7.188;2023-10-31T07:27:43;0.67;;;0.67;;
9938;SDS011;5008;50.656;7.188;2023-10-31T07:30:10;0.97;;;0.60;;
9938;SDS011;5008;50.656;7.188;2023-10-31T07:32:38;1.07;;;0.60;;
9938;SDS011;5008;50.656;7.188;2023-10-31T07:35:06;0.97;;;0.90;;
9938;SDS011;5008;50.656;7.188;2023-10-31T07:37:33;0.83;;;0.43;;
9938;SDS011;5008;50.656;7.188;2023-10-31T07:40:00;0.73;;;0.73;;
9938;SDS011;5008;50.656;7.188;2023-10-31T07:42:29;0.70;;;0.67;;
9938;SDS011;5008;50.656;7.188;2023-10-31T07:44:56;1.10;;;0.60;;
9938;SDS011;5008;50.656;7.188;2023-10-31T07:47:24;0.87;;;0.77;;
9938;SDS011;5008;50.656;7.188;2023-10-31T07:49:51;2.23;;;1.03;;
9938;SDS011;5008;50.656;7.188;2023-10-31T07:52:20;0.60;;;0.60;;
9938;SDS011;5008;50.656;7.188;2023-10-31T07:54:47;1.33;;;0.90;;
9938;SDS011;5008;50.656;7.188;2023-10-31T07:57:13;0.53;;;0.53;;
9938;SDS011;5008;50.656;7.188;2023-10-31T07:59:40;1.33;;;0.77;;
9938;SDS011;5008;50.656;7.188;2023-10-31T08:02:07;1.33;;;0.90;;
9938;SDS011;5008;50.656;7.188;2023-10-31T08:04:34;4.17;;;0.83;;
9938;SDS011;5008;50.656;7.188;2023-10-31T08:07:01;1.77;;;0.80;;
9938;SDS011;5008;50.656;7.188;2023-10-31T08:09:30;0.63;;;0.63;;
9938;SDS011;5008;50.656;7.188;2023-10-31T08:11:56;2.40;;;0.90;;
9938;SDS011;5008;50.656;7.188;2023-10-31T08:17:14;2.17;;;0.90;;
9938;SDS011;5008;50.656;7.188;2023-10-31T08:19:41;2.20;;;0.97;;
9938;SDS011;5008;50.656;7.188;2023-10-31T08:22:07;1.10;;;1.07;;
9938;SDS011;5008;50.656;7.188;2023-10-31T08:24:36;2.53;;;1.43;;
9938;SDS011;5008;50.656;7.188;2023-10-31T08:27:04;4.07;;;1.57;;
9938;SDS011;5008;50.656;7.188;2023-10-31T08:29:31;2.00;;;1.10;;
9938;SDS011;5008;50.656;7.188;2023-10-31T08:31:58;1.73;;;1.27;;
9938;SDS011;5008;50.656;7.188;2023-10-31T08:34:25;0.97;;;0.90;;
9938;SDS011;5008;50.656;7.188;2023-10-31T08:36:52;0.80;;;0.80;;
9938;SDS011;5008;50.656;7.188;2023-10-31T08:39:19;1.43;;;0.70;;
9938;SDS011;5008;50.656;7.188;2023-10-31T08:44:20;1.10;;;0.80;;
9938;SDS011;5008;50.656;7.188;2023-10-31T08:46:47;1.37;;;1.00;;
9938;SDS011;5008;50.656;7.188;2023-10-31T08:49:14;3.30;;;0.87;;
9938;SDS011;5008;50.656;7.188;2023-10-31T08:51:42;1.20;;;0.60;;
9938;SDS011;5008;50.656;7.188;2023-10-31T08:54:09;1.03;;;0.93;;
9938;SDS011;5008;50.656;7.188;2023-10-31T08:56:36;0.87;;;0.87;;
9938;SDS011;5008;50.656;7.188;2023-10-31T08:59:05;1.27;;;0.80;;
9938;SDS011;5008;50.656;7.188;2023-10-31T09:01:32;1.00;;;0.40;;
9938;SDS011;5008;50.656;7.188;2023-10-31T09:03:59;0.50;;;0.50;;
9938;SDS011;5008;50.656;7.188;2023-10-31T09:06:26;0.90;;;0.77;;
9938;SDS011;5008;50.656;7.188;2023-10-31T09:08:53;0.87;;;0.87;;
9938;SDS011;5008;50.656;7.188;2023-10-31T09:11:20;0.80;;;0.80;;
9938;SDS011;5008;50.656;7.188;2023-10-31T09:13:47;0.90;;;0.90;;
9938;SDS011;5008;50.656;7.188;2023-10-31T09:16:15;0.73;;;0.57;;
9938;SDS011;5008;50.656;7.188;2023-10-31T09:18:42;1.33;;;0.90;;
9938;SDS011;5008;50.656;7.188;2023-10-31T09:21:10;1.03;;;0.83;;
9938;SDS011;5008;50.656;7.188;2023-10-31T09:23:37;0.57;;;0.57;;
9938;SDS011;5008;50.656;7.188;2023-10-31T09:26:03;1.70;;;0.80;;
9938;SDS011;5008;50.656;7.188;2023-10-31T09:28:30;1.47;;;0.87;;
9938;SDS011;5008;50.656;7.188;2023-10-31T09:30:58;0.97;;;0.80;;
9938;SDS011;5008;50.656;7.188;2023-10-31T09:33:28;1.20;;;0.80;;
9938;SDS011;5008;50.656;7.188;2023-10-31T09:35:54;2.67;;;0.60;;
9938;SDS011;5008;50.656;7.188;2023-10-31T09:38:22;1.63;;;0.80;;
9938;SDS011;5008;50.656;7.188;2023-10-31T09:40:49;0.77;;;0.70;;
9938;SDS011;5008;50.656;7.188;2023-10-31T09:43:16;1.43;;;0.60;;
9938;SDS011;5008;50.656;7.188;2023-10-31T09:45:43;0.53;;;0.53;;
9938;SDS011;5008;50.656;7.188;2023-10-31T09:48:12;2.30;;;0.70;;
9938;SDS011;5008;50.656;7.188;2023-10-31T09:50:41;0.60;;;0.50;;
9938;SDS011;5008;50.656;7.188;2023-10-31T09:53:07;0.37;;;0.37;;
9938;SDS011;5008;50.656;7.188;2023-10-31T09:55:35;0.50;;;0.50;;
9938;SDS011;5008;50.656;7.188;2023-10-31T09:58:03;0.60;;;0.60;;
9938;SDS011;5008;50.656;7.188;2023-10-31T10:00:30;0.70;;;0.43;;
9938;SDS011;5008;50.656;7.188;2023-10-31T10:02:57;1.40;;;0.47;;
9938;SDS011;5008;50.656;7.188;2023-10-31T10:05:30;0.50;;;0.50;;
9938;SDS011;5008;50.656;7.188;2023-10-31T10:07:59;0.47;;;0.47;;
9938;SDS011;5008;50.656;7.188;2023-10-31T10:10:26;1.20;;;0.60;;
9938;SDS011;5008;50.656;7.188;2023-10-31T10:12:55;0.50;;;0.50;;
9938;SDS011;5008;50.656;7.188;2023-10-31T10:15:22;0.67;;;0.50;;
9938;SDS011;5008;50.656;7.188;2023-10-31T10:17:49;0.73;;;0.50;;
9938;SDS011;5008;50.656;7.188;2023-10-31T10:20:22;0.53;;;0.53;;
9938;SDS011;5008;50.656;7.188;2023-10-31T10:22:49;0.40;;;0.40;;
9938;SDS011;5008;50.656;7.188;2023-10-31T10:25:18;0.50;;;0.40;;
9938;SDS011;5008;50.656;7.188;2023-10-31T10:27:45;1.23;;;0.80;;
9938;SDS011;5008;50.656;7.188;2023-10-31T10:30:13;0.40;;;0.40;;
9938;SDS011;5008;50.656;7.188;2023-10-31T10:32:40;0.60;;;0.60;;
9938;SDS011;5008;50.656;7.188;2023-10-31T10:35:07;0.33;;;0.33;;
9938;SDS011;5008;50.656;7.188;2023-10-31T10:37:34;0.50;;;0.40;;
9938;SDS011;5008;50.656;7.188;2023-10-31T10:40:05;0.70;;;0.70;;
9938;SDS011;5008;50.656;7.188;2023-10-31T10:42:36;0.47;;;0.47;;
9938;SDS011;5008;50.656;7.188;2023-10-31T10:45:11;0.50;;;0.50;;
9938;SDS011;5008;50.656;7.188;2023-10-31T10:47:40;0.50;;;0.43;;
9938;SDS011;5008;50.656;7.188;2023-10-31T10:50:11;0.57;;;0.57;;
9938;SDS011;5008;50.656;7.188;2023-10-31T10:52:41;0.40;;;0.40;;
9938;SDS011;5008;50.656;7.188;2023-10-31T10:55:12;0.57;;;0.57;;
9938;SDS011;5008;50.656;7.188;2023-10-31T10:58:00;1.30;;;0.70;;
9938;SDS011;5008;50.656;7.188;2023-10-31T11:00:30;0.93;;;0.60;;
9938;SDS011;5008;50.656;7.188;2023-10-31T11:02:57;1.80;;;0.80;;
9938;SDS011;5008;50.656;7.188;2023-10-31T11:05:26;0.30;;;0.30;;
9938;SDS011;5008;50.656;7.188;2023-10-31T11:07:53;0.63;;;0.63;;
9938;SDS011;5008;50.656;7.188;2023-10-31T11:10:23;0.70;;;0.40;;
9938;SDS011;5008;50.656;7.188;2023-10-31T11:12:52;2.20;;;0.60;;
9938;SDS011;5008;50.656;7.188;2023-10-31T11:15:20;0.85;;;0.60;;
9938;SDS011;5008;50.656;7.188;2023-10-31T11:17:47;1.10;;;0.80;;
9938;SDS011;5008;50.656;7.188;2023-10-31T11:20:15;0.70;;;0.70;;
9938;SDS011;5008;50.656;7.188;2023-10-31T11:22:43;0.50;;;0.50;;
9938;SDS011;5008;50.656;7.188;2023-10-31T11:25:14;0.67;;;0.67;;
9938;SDS011;5008;50.656;7.188;2023-10-31T11:27:44;0.50;;;0.50;;
9938;SDS011;5008;50.656;7.188;2023-10-31T11:30:20;0.57;;;0.57;;
9938;SDS011;5008;50.656;7.188;2023-10-31T11:32:48;0.40;;;0.40;;
9938;SDS011;5008;50.656;7.188;2023-10-31T11:35:16;0.97;;;0.67;;
9938;SDS011;5008;50.656;7.188;2023-10-31T11:37:44;0.60;;;0.60;;
9938;SDS011;5008;50.656;7.188;2023-10-31T11:40:15;0.93;;;0.60;;
9938;SDS011;5008;50.656;7.188;2023-10-31T11:42:43;1.53;;;0.90;;
9938;SDS011;5008;50.656;7.188;2023-10-31T11:45:12;1.00;;;0.60;;
9938;SDS011;5008;50.656;7.188;2023-10-31T11:47:51;2.17;;;1.00;;
9938;SDS011;5008;50.656;7.188;2023-10-31T11:50:18;1.87;;;0.93;;
9938;SDS011;5008;50.656;7.188;2023-10-31T11:52:45;1.00;;;0.73;;
9938;SDS011;5008;50.656;7.188;2023-10-31T11:55:25;1.10;;;0.77;;
9938;SDS011;5008;50.656;7.188;2023-10-31T11:57:52;2.20;;;1.07;;
9938;SDS011;5008;50.656;7.188;2023-10-31T12:00:22;1.80;;;0.90;;
9938;SDS011;5008;50.656;7.188;2023-10-31T12:02:58;0.77;;;0.77;;
9938;SDS011;5008;50.656;7.188;2023-10-31T12:05:25;1.23;;;0.83;;
9938;SDS011;5008;50.656;7.188;2023-10-31T12:07:52;1.63;;;0.87;;
9938;SDS011;5008;50.656;7.188;2023-10-31T12:10:23;1.20;;;0.90;;
9938;SDS011;5008;50.656;7.188;2023-10-31T12:12:56;1.03;;;0.83;;
9938;SDS011;5008;50.656;7.188;2023-10-31T12:15:23;1.37;;;0.63;;
9938;SDS011;5008;50.656;7.188;2023-10-31T12:17:51;1.30;;;0.67;;
9938;SDS011;5008;50.656;7.188;2023-10-31T12:20:25;1.00;;;0.90;;
9938;SDS011;5008;50.656;7.188;2023-10-31T12:23:02;1.07;;;0.73;;
9938;SDS011;5008;50.656;7.188;2023-10-31T12:25:29;0.95;;;0.60;;
9938;SDS011;5008;50.656;7.188;2023-10-31T12:28:00;1.52;;;0.88;;
9938;SDS011;5008;50.656;7.188;2023-10-31T12:30:27;2.27;;;0.83;;
9938;SDS011;5008;50.656;7.188;2023-10-31T12:32:54;1.38;;;1.00;;
9938;SDS011;5008;50.656;7.188;2023-10-31T12:35:27;1.50;;;0.95;;
9938;SDS011;5008;50.656;7.188;2023-10-31T12:37:54;2.25;;;0.80;;
9938;SDS011;5008;50.656;7.188;2023-10-31T12:40:22;1.17;;;0.63;;
9938;SDS011;5008;50.656;7.188;2023-10-31T12:42:51;2.20;;;1.00;;
9938;SDS011;5008;50.656;7.188;2023-10-31T12:45:19;1.10;;;0.98;;
9938;SDS011;5008;50.656;7.188;2023-10-31T12:47:59;1.20;;;0.90;;
9938;SDS011;5008;50.656;7.188;2023-10-31T12:50:28;1.60;;;1.00;;
9938;SDS011;5008;50.656;7.188;2023-10-31T12:52:56;1.40;;;1.05;;
9938;SDS011;5008;50.656;7.188;2023-10-31T12:55:24;1.95;;;1.08;;
9938;SDS011;5008;50.656;7.188;2023-10-31T12:57:53;2.58;;;1.00;;
9938;SDS011;5008;50.656;7.188;2023-10-31T13:00:21;1.25;;;1.00;;
9938;SDS011;5008;50.656;7.188;2023-10-31T13:02:50;1.77;;;0.80;;
9938;SDS011;5008;50.656;7.188;2023-10-31T13:05:18;0.98;;;0.70;;
9938;SDS011;5008;50.656;7.188;2023-10-31T13:07:50;0.93;;;0.80;;
9938;SDS011;5008;50.656;7.188;2023-10-31T13:10:18;1.00;;;0.60;;
9938;SDS011;5008;50.656;7.188;2023-10-31T13:12:45;2.00;;;0.95;;
9938;SDS011;5008;50.656;7.188;2023-10-31T13:15:13;1.45;;;0.70;;
9938;SDS011;5008;50.656;7.188;2023-10-31T13:17:39;1.95;;;1.33;;
9938;SDS011;5008;50.656;7.188;2023-10-31T13:20:08;0.95;;;0.60;;
9938;SDS011;5008;50.656;7.188;2023-10-31T13:22:36;1.17;;;0.70;;
9938;SDS011;5008;50.656;7.188;2023-10-31T13:25:05;2.55;;;1.10;;
9938;SDS011;5008;50.656;7.188;2023-10-31T13:27:32;2.20;;;1.00;;
9938;SDS011;5008;50.656;7.188;2023-10-31T13:30:00;1.85;;;0.90;;
9938;SDS011;5008;50.656;7.188;2023-10-31T13:32:33;2.05;;;0.90;;
9938;SDS011;5008;50.656;7.188;2023-10-31T13:35:00;1.50;;;0.77;;
9938;SDS011;5008;50.656;7.188;2023-10-31T13:37:28;2.28;;;0.90;;
9938;SDS011;5008;50.656;7.188;2023-10-31T13:39:55;3.53;;;1.05;;
9938;SDS011;5008;50.656;7.188;2023-10-31T13:42:23;1.30;;;0.88;;
9938;SDS011;5008;50.656;7.188;2023-10-31T13:44:58;1.63;;;1.10;;
9938;SDS011;5008;50.656;7.188;2023-10-31T13:47:25;0.73;;;0.60;;
9938;SDS011;5008;50.656;7.188;2023-10-31T13:49:54;1.83;;;1.10;;
9938;SDS011;5008;50.656;7.188;2023-10-31T13:52:21;1.60;;;0.80;;
9938;SDS011;5008;50.656;7.188;2023-10-31T13:54:47;1.45;;;1.00;;
9938;SDS011;5008;50.656;7.188;2023-10-31T13:57:14;3.58;;;0.85;;
9938;SDS011;5008;50.656;7.188;2023-10-31T13:59:42;2.30;;;0.80;;
9938;SDS011;5008;50.656;7.188;2023-10-31T14:02:10;1.17;;;0.80;;
9938;SDS011;5008;50.656;7.188;2023-10-31T14:04:37;2.05;;;0.98;;
9938;SDS011;5008;50.656;7.188;2023-10-31T14:07:04;1.45;;;1.10;;
9938;SDS011;5008;50.656;7.188;2023-10-31T14:09:31;1.60;;;0.68;;
9938;SDS011;5008;50.656;7.188;2023-10-31T14:11:58;0.68;;;0.68;;
9938;SDS011;5008;50.656;7.188;2023-10-31T14:14:25;0.85;;;0.85;;
9938;SDS011;5008;50.656;7.188;2023-10-31T14:16:56;1.90;;;0.75;;
9938;SDS011;5008;50.656;7.188;2023-10-31T14:19:23;2.03;;;1.08;;
9938;SDS011;5008;50.656;7.188;2023-10-31T14:21:50;1.02;;;0.75;;
9938;SDS011;5008;50.656;7.188;2023-10-31T14:24:17;1.40;;;0.90;;
9938;SDS011;5008;50.656;7.188;2023-10-31T14:26:44;0.93;;;0.80;;
9938;SDS011;5008;50.656;7.188;2023-10-31T14:29:11;2.35;;;0.98;;
9938;SDS011;5008;50.656;7.188;2023-10-31T14:31:54;1.60;;;0.80;;
9938;SDS011;5008;50.656;7.188;2023-10-31T14:34:23;2.25;;;1.25;;
9938;SDS011;5008;50.656;7.188;2023-10-31T14:36:50;1.48;;;0.70;;
9938;SDS011;5008;50.656;7.188;2023-10-31T14:39:16;2.20;;;1.00;;
9938;SDS011;5008;50.656;7.188;2023-10-31T14:41:43;1.65;;;0.93;;
9938;SDS011;5008;50.656;7.188;2023-10-31T14:44:10;0.90;;;0.80;;
9938;SDS011;5008;50.656;7.188;2023-10-31T14:46:37;1.83;;;0.93;;
9938;SDS011;5008;50.656;7.188;2023-10-31T14:49:06;1.20;;;0.73;;
9938;SDS011;5008;50.656;7.188;2023-10-31T14:51:33;1.33;;;1.20;;
9938;SDS011;5008;50.656;7.188;2023-10-31T14:54:00;0.77;;;0.70;;
9938;SDS011;5008;50.656;7.188;2023-10-31T14:56:26;1.05;;;0.70;;
9938;SDS011;5008;50.656;7.188;2023-10-31T14:58:54;0.80;;;0.80;;
9938;SDS011;5008;50.656;7.188;2023-10-31T15:01:21;1.02;;;0.73;;
9938;SDS011;5008;50.656;7.188;2023-10-31T15:03:48;1.98;;;1.00;;
9938;SDS011;5008;50.656;7.188;2023-10-31T15:06:18;2.08;;;0.82;;
9938;SDS011;5008;50.656;7.188;2023-10-31T15:08:46;1.23;;;0.82;;
9938;SDS011;5008;50.656;7.188;2023-10-31T15:11:13;1.17;;;0.80;;
9938;SDS011;5008;50.656;7.188;2023-10-31T15:13:41;3.20;;;1.00;;
9938;SDS011;5008;50.656;7.188;2023-10-31T15:16:08;1.92;;;1.00;;
9938;SDS011;5008;50.656;7.188;2023-10-31T15:18:35;2.33;;;1.08;;
9938;SDS011;5008;50.656;7.188;2023-10-31T15:21:02;1.38;;;1.02;;
9938;SDS011;5008;50.656;7.188;2023-10-31T15:23:31;1.35;;;0.75;;
9938;SDS011;5008;50.656;7.188;2023-10-31T15:25:58;1.75;;;1.20;;
9938;SDS011;5008;50.656;7.188;2023-10-31T15:28:25;1.27;;;0.90;;
9938;SDS011;5008;50.656;7.188;2023-10-31T15:30:52;0.65;;;0.65;;
9938;SDS011;5008;50.656;7.188;2023-10-31T15:33:20;1.70;;;0.73;;
9938;SDS011;5008;50.656;7.188;2023-10-31T15:35:47;0.73;;;0.50;;
9938;SDS011;5008;50.656;7.188;2023-10-31T15:38:13;0.50;;;0.50;;
9938;SDS011;5008;50.656;7.188;2023-10-31T15:40:44;0.73;;;0.73;;
9938;SDS011;5008;50.656;7.188;2023-10-31T15:43:11;0.75;;;0.63;;
9938;SDS011;5008;50.656;7.188;2023-10-31T15:45:38;2.38;;;1.02;;
9938;SDS011;5008;50.656;7.188;2023-10-31T15:48:05;2.75;;;0.90;;
9938;SDS011;5008;50.656;7.188;2023-10-31T15:50:32;1.42;;;0.50;;
9938;SDS011;5008;50.656;7.188;2023-10-31T15:53:00;1.50;;;1.00;;
9938;SDS011;5008;50.656;7.188;2023-10-31T15:55:27;1.70;;;0.85;;
9938;SDS011;5008;50.656;7.188;2023-10-31T15:57:56;1.87;;;1.33;;
9938;SDS011;5008;50.656;7.188;2023-10-31T16:00:30;1.17;;;1.05;;
9938;SDS011;5008;50.656;7.188;2023-10-31T16:02:57;2.30;;;1.33;;
9938;SDS011;5008;50.656;7.188;2023-10-31T16:05:24;1.70;;;1.30;;
9938;SDS011;5008;50.656;7.188;2023-10-31T16:07:50;1.00;;;0.90;;
9938;SDS011;5008;50.656;7.188;2023-10-31T16:10:18;1.75;;;1.00;;
9938;SDS011;5008;50.656;7.188;2023-10-31T16:12:44;0.95;;;0.82;;
9938;SDS011;5008;50.656;7.188;2023-10-31T16:15:12;1.10;;;0.70;;
9938;SDS011;5008;50.656;7.188;2023-10-31T16:17:39;1.53;;;1.40;;
9938;SDS011;5008;50.656;7.188;2023-10-31T16:20:06;1.77;;;1.00;;
9938;SDS011;5008;50.656;7.188;2023-10-31T16:22:34;2.15;;;0.90;;
9938;SDS011;5008;50.656;7.188;2023-10-31T16:25:01;1.23;;;1.10;;
9938;SDS011;5008;50.656;7.188;2023-10-31T16:27:28;0.88;;;0.70;;
9938;SDS011;5008;50.656;7.188;2023-10-31T16:29:54;1.00;;;0.90;;
9938;SDS011;5008;50.656;7.188;2023-10-31T16:32:24;0.90;;;0.77;;
9938;SDS011;5008;50.656;7.188;2023-10-31T16:34:51;0.98;;;0.90;;
9938;SDS011;5008;50.656;7.188;2023-10-31T16:37:19;2.10;;;1.67;;
9938;SDS011;5008;50.656;7.188;2023-10-31T16:39:45;2.30;;;1.37;;
9938;SDS011;5008;50.656;7.188;2023-10-31T16:42:12;1.67;;;1.33;;
9938;SDS011;5008;50.656;7.188;2023-10-31T16:44:40;1.30;;;1.20;;
9938;SDS011;5008;50.656;7.188;2023-10-31T16:47:07;2.75;;;1.58;;
9938;SDS011;5008;50.656;7.188;2023-10-31T16:49:35;4.15;;;2.00;;
9938;SDS011;5008;50.656;7.188;2023-10-31T16:52:10;2.42;;;1.70;;
9938;SDS011;5008;50.656;7.188;2023-10-31T16:54:38;2.25;;;1.65;;
9938;SDS011;5008;50.656;7.188;2023-10-31T16:57:14;1.60;;;1.50;;
9938;SDS011;5008;50.656;7.188;2023-10-31T16:59:40;2.03;;;1.90;;
9938;SDS011;5008;50.656;7.188;2023-10-31T17:02:11;3.73;;;2.40;;
9938;SDS011;5008;50.656;7.188;2023-10-31T17:04:40;3.53;;;2.03;;
9938;SDS011;5008;50.656;7.188;2023-10-31T17:07:06;1.70;;;1.60;;
9938;SDS011;5008;50.656;7.188;2023-10-31T17:09:34;1.50;;;1.40;;
9938;SDS011;5008;50.656;7.188;2023-10-31T17:12:01;1.53;;;1.17;;
9938;SDS011;5008;50.656;7.188;2023-10-31T17:14:28;2.40;;;1.55;;
9938;SDS011;5008;50.656;7.188;2023-10-31T17:16:55;2.00;;;1.80;;
9938;SDS011;5008;50.656;7.188;2023-10-31T17:19:22;6.77;;;3.77;;
9938;SDS011;5008;50.656;7.188;2023-10-31T17:21:50;3.70;;;2.90;;
9938;SDS011;5008;50.656;7.188;2023-10-31T17:24:17;2.70;;;1.90;;
9938;SDS011;5008;50.656;7.188;2023-10-31T17:26:44;1.93;;;1.80;;
9938;SDS011;5008;50.656;7.188;2023-10-31T17:29:11;1.60;;;1.50;;
9938;SDS011;5008;50.656;7.188;2023-10-31T17:31:38;2.47;;;1.73;;
9938;SDS011;5008;50.656;7.188;2023-10-31T17:34:05;1.60;;;1.50;;
9938;SDS011;5008;50.656;7.188;2023-10-31T17:36:32;2.57;;;1.73;;
9938;SDS011;5008;50.656;7.188;2023-10-31T17:39:08;1.80;;;1.70;;
9938;SDS011;5008;50.656;7.188;2023-10-31T17:41:35;2.23;;;1.70;;
9938;SDS011;5008;50.656;7.188;2023-10-31T17:44:02;2.67;;;1.60;;
9938;SDS011;5008;50.656;7.188;2023-10-31T17:46:33;1.70;;;1.60;;
9938;SDS011;5008;50.656;7.188;2023-10-31T17:49:00;1.57;;;1.47;;
9938;SDS011;5008;50.656;7.188;2023-10-31T17:51:27;1.53;;;1.40;;
9938;SDS011;5008;50.656;7.188;2023-10-31T17:53:54;1.60;;;1.50;;
9938;SDS011;5008;50.656;7.188;2023-10-31T17:56:22;1.97;;;1.63;;
9938;SDS011;5008;50.656;7.188;2023-10-31T17:58:49;2.10;;;1.87;;
9938;SDS011;5008;50.656;7.188;2023-10-31T18:01:16;1.80;;;1.60;;
9938;SDS011;5008;50.656;7.188;2023-10-31T18:03:42;2.57;;;1.97;;
9938;SDS011;5008;50.656;7.188;2023-10-31T18:06:09;2.07;;;1.60;;
9938;SDS011;5008;50.656;7.188;2023-10-31T18:08:36;2.00;;;1.80;;
9938;SDS011;5008;50.656;7.188;2023-10-31T18:11:03;1.73;;;1.50;;
9938;SDS011;5008;50.656;7.188;2023-10-31T18:13:32;1.53;;;1.43;;
9938;SDS011;5008;50.656;7.188;2023-10-31T18:15:59;2.80;;;1.70;;
9938;SDS011;5008;50.656;7.188;2023-10-31T18:18:26;2.70;;;1.60;;
9938;SDS011;5008;50.656;7.188;2023-10-31T18:20:53;3.43;;;2.40;;
9938;SDS011;5008;50.656;7.188;2023-10-31T18:23:20;3.23;;;2.50;;
9938;SDS011;5008;50.656;7.188;2023-10-31T18:25:47;6.87;;;4.60;;
9938;SDS011;5008;50.656;7.188;2023-10-31T18:28:16;4.30;;;3.90;;
9938;SDS011;5008;50.656;7.188;2023-10-31T18:30:45;2.60;;;2.20;;
9938;SDS011;5008;50.656;7.188;2023-10-31T18:33:12;3.17;;;2.33;;
9938;SDS011;5008;50.656;7.188;2023-10-31T18:35:38;2.63;;;2.43;;
9938;SDS011;5008;50.656;7.188;2023-10-31T18:38:05;4.00;;;3.63;;
9938;SDS011;5008;50.656;7.188;2023-10-31T18:40:34;4.37;;;3.57;;
9938;SDS011;5008;50.656;7.188;2023-10-31T18:43:05;4.70;;;4.00;;
9938;SDS011;5008;50.656;7.188;2023-10-31T18:45:32;4.20;;;2.60;;
9938;SDS011;5008;50.656;7.188;2023-10-31T18:48:01;2.43;;;2.20;;
9938;SDS011;5008;50.656;7.188;2023-10-31T18:50:27;2.13;;;1.80;;
9938;SDS011;5008;50.656;7.188;2023-10-31T18:52:54;2.53;;;2.03;;
9938;SDS011;5008;50.656;7.188;2023-10-31T18:55:22;3.27;;;2.77;;
9938;SDS011;5008;50.656;7.188;2023-10-31T18:57:49;2.47;;;2.20;;
9938;SDS011;5008;50.656;7.188;2023-10-31T19:00:16;3.20;;;1.70;;
9938;SDS011;5008;50.656;7.188;2023-10-31T19:02:43;2.57;;;2.17;;
9938;SDS011;5008;50.656;7.188;2023-10-31T19:05:11;2.40;;;2.20;;
9938;SDS011;5008;50.656;7.188;2023-10-31T19:07:39;2.30;;;1.97;;
9938;SDS011;5008;50.656;7.188;2023-10-31T19:10:07;3.00;;;2.13;;
9938;SDS011;5008;50.656;7.188;2023-10-31T19:12:34;3.20;;;1.70;;
9938;SDS011;5008;50.656;7.188;2023-10-31T19:15:01;2.03;;;1.73;;
9938;SDS011;5008;50.656;7.188;2023-10-31T19:17:28;2.23;;;2.00;;
9938;SDS011;5008;50.656;7.188;2023-10-31T19:19:56;2.83;;;2.20;;
9938;SDS011;5008;50.656;7.188;2023-10-31T19:22:24;3.27;;;2.80;;
9938;SDS011;5008;50.656;7.188;2023-10-31T19:25:03;3.23;;;2.23;;
9938;SDS011;5008;50.656;7.188;2023-10-31T19:27:31;4.27;;;2.90;;
9938;SDS011;5008;50.656;7.188;2023-10-31T19:29:57;5.70;;;4.43;;
9938;SDS011;5008;50.656;7.188;2023-10-31T19:32:25;6.50;;;3.73;;
9938;SDS011;5008;50.656;7.188;2023-10-31T19:34:52;3.67;;;2.67;;
9938;SDS011;5008;50.656;7.188;2023-10-31T19:37:19;2.87;;;2.60;;
9938;SDS011;5008;50.656;7.188;2023-10-31T19:39:47;3.93;;;3.20;;
9938;SDS011;5008;50.656;7.188;2023-10-31T19:44:54;4.90;;;3.63;;
9938;SDS011;5008;50.656;7.188;2023-10-31T19:47:21;5.77;;;4.53;;
9938;SDS011;5008;50.656;7.188;2023-10-31T19:49:48;4.20;;;3.83;;
9938;SDS011;5008;50.656;7.188;2023-10-31T19:52:15;4.23;;;3.47;;
9938;SDS011;5008;50.656;7.188;2023-10-31T19:54:42;7.50;;;3.40;;
9938;SDS011;5008;50.656;7.188;2023-10-31T19:57:10;4.23;;;3.30;;
9938;SDS011;5008;50.656;7.188;2023-10-31T19:59:50;4.07;;;3.00;;
9938;SDS011;5008;50.656;7.188;2023-10-31T20:02:17;3.60;;;3.30;;
9938;SDS011;5008;50.656;7.188;2023-10-31T20:04:43;3.00;;;2.60;;
9938;SDS011;5008;50.656;7.188;2023-10-31T20:07:11;3.80;;;3.03;;
9938;SDS011;5008;50.656;7.188;2023-10-31T20:12:25;6.00;;;3.23;;
9938;SDS011;5008;50.656;7.188;2023-10-31T20:17:37;4.63;;;3.30;;
9938;SDS011;5008;50.656;7.188;2023-10-31T20:20:04;3.77;;;2.70;;
9938;SDS011;5008;50.656;7.188;2023-10-31T20:22:32;2.87;;;2.53;;
9938;SDS011;5008;50.656;7.188;2023-10-31T20:24:59;2.37;;;2.07;;
9938;SDS011;5008;50.656;7.188;2023-10-31T20:27:27;3.50;;;2.20;;
9938;SDS011;5008;50.656;7.188;2023-10-31T20:29:54;2.50;;;2.10;;
9938;SDS011;5008;50.656;7.188;2023-10-31T20:32:21;4.03;;;2.23;;
9938;SDS011;5008;50.656;7.188;2023-10-31T20:34:48;2.80;;;2.40;;
9938;SDS011;5008;50.656;7.188;2023-10-31T20:37:14;2.90;;;2.40;;
9938;SDS011;5008;50.656;7.188;2023-10-31T20:39:47;2.30;;;2.10;;
9938;SDS011;5008;50.656;7.188;2023-10-31T20:42:14;3.00;;;2.40;;
9938;SDS011;5008;50.656;7.188;2023-10-31T20:44:42;3.63;;;2.27;;
9938;SDS011;5008;50.656;7.188;2023-10-31T20:47:09;2.77;;;2.40;;
9938;SDS011;5008;50.656;7.188;2023-10-31T20:49:36;3.83;;;2.23;;
9938;SDS011;5008;50.656;7.188;2023-10-31T20:52:03;2.20;;;1.80;;